Time;durP1;ratioP1;P1;durP2;ratioP2;P2;SDS_P1;SDS_P2;PMS_P1;PMS_P2;Temp;Humidity;BMP_temperature;BMP_pressure;BME280_temperature;BME280_humidity;BME280_pressure;Samples;Min_cycle;Max_cycle;Signal;HPM_P1;HPM_P2
2023/06/13 00:00:55;;;;;;;6.50;2.10;;;19.50;63.10;;;;;;4182151;28;20048;-86
2023/06/13 00:02:57;;;;;;;5.40;2.20;;;19.50;64.00;;;;;;4199770;28;20036;-86
2023/06/13 00:05:00;;;;;;;4.57;2.35;;;19.40;63.50;;;;;;4182203;28;20086;-86
2023/06/13 00:07:01;;;;;;;2.60;2.00;;;19.40;63.70;;;;;;4165662;28;20579;-87
2023/06/13 00:09:03;;;;;;;3.33;1.95;;;19.40;64.00;;;;;;4200086;28;20051;-86
2023/06/13 00:11:05;;;;;;;7.50;2.67;;;19.30;64.20;;;;;;4181425;28;20404;-86
2023/06/13 00:13:06;;;;;;;9.65;2.40;;;19.30;64.40;;;;;;4200633;28;20904;-87
2023/06/13 00:15:10;;;;;;;5.65;2.08;;;19.20;64.70;;;;;;4199752;28;20048;-86
2023/06/13 00:17:11;;;;;;;10.48;2.22;;;19.20;64.90;;;;;;4199437;28;20047;-87
2023/06/13 00:19:12;;;;;;;7.30;3.17;;;19.10;65.10;;;;;;4181875;28;20057;-86
2023/06/13 00:21:14;;;;;;;5.97;2.13;;;19.10;65.30;;;;;;4199496;28;20055;-86
2023/06/13 00:23:16;;;;;;;4.97;2.38;;;19.10;65.60;;;;;;4199500;28;20086;-86
2023/06/13 00:25:16;;;;;;;10.60;2.83;;;19.10;65.80;;;;;;4199291;28;20393;-86
2023/06/13 00:27:17;;;;;;;5.22;2.47;;;19.00;66.10;;;;;;4199572;28;20033;-86
2023/06/13 00:29:18;;;;;;;6.10;2.50;;;18.90;66.30;;;;;;4199058;28;20048;-85
2023/06/13 00:31:19;;;;;;;12.23;3.72;;;18.90;66.60;;;;;;4198997;28;20072;-86
2023/06/13 00:33:20;;;;;;;5.63;2.13;;;18.90;66.70;;;;;;4165008;28;20041;-86
2023/06/13 00:35:21;;;;;;;6.20;2.20;;;18.80;67.00;;;;;;4199091;28;20078;-86
2023/06/13 00:37:22;;;;;;;5.07;2.08;;;18.80;67.20;;;;;;4182096;28;20107;-86
2023/06/13 00:39:23;;;;;;;4.95;2.20;;;18.70;67.30;;;;;;4199020;28;20044;-86
2023/06/13 00:41:24;;;;;;;4.65;2.22;;;18.70;67.60;;;;;;4200116;28;20041;-86
2023/06/13 00:43:27;;;;;;;10.57;2.47;;;18.60;67.80;;;;;;4199105;28;20124;-86
2023/06/13 00:45:29;;;;;;;4.65;2.90;;;18.60;68.00;;;;;;4198637;28;20062;-86
2023/06/13 00:47:30;;;;;;;3.35;2.08;;;18.60;68.30;;;;;;4199026;28;20056;-86
2023/06/13 00:49:32;;;;;;;3.45;1.85;;;18.50;68.40;;;;;;4199107;28;20059;-86
2023/06/13 00:51:41;;;;;;;3.55;1.95;;;18.50;68.50;;;;;;4200191;28;20052;-86
2023/06/13 00:53:44;;;;;;;;;;;18.50;68.70;;;;;;4181187;28;20127;-88
2023/06/13 00:55:47;;;;;;;8.35;2.90;;;18.40;69.60;;;;;;4199710;28;19920;-86
2023/06/13 00:57:55;;;;;;;4.35;2.08;;;18.40;69.40;;;;;;4199354;28;20056;-86
2023/06/13 00:59:56;;;;;;;3.17;2.40;;;18.40;69.10;;;;;;4198202;28;20397;-87
2023/06/13 01:01:57;;;;;;;7.38;2.10;;;18.40;69.30;;;;;;4180675;28;20123;-86
2023/06/13 01:03:59;;;;;;;13.52;3.97;;;18.30;69.40;;;;;;4198959;28;20536;-86
2023/06/13 01:06:01;;;;;;;4.00;2.45;;;18.30;69.60;;;;;;4199314;28;20048;-86
2023/06/13 01:08:11;;;;;;;6.38;2.15;;;18.20;70.00;;;;;;4198495;28;20053;-86
2023/06/13 01:10:12;;;;;;;4.07;2.10;;;18.20;70.40;;;;;;4198415;28;20863;-86
2023/06/13 01:12:23;;;;;;;3.13;2.13;;;18.20;70.50;;;;;;4181142;28;20118;-86
2023/06/13 01:14:48;;;;;;;9.02;2.63;;;18.10;70.80;;;;;;4198371;28;20500;-86
2023/06/13 01:16:56;;;;;;;5.15;2.50;;;18.10;71.60;;;;;;4180567;28;20081;-86
2023/06/13 01:18:58;;;;;;;5.88;2.80;;;18.10;71.20;;;;;;4198819;28;20063;-86
2023/06/13 01:21:00;;;;;;;4.82;2.50;;;18.00;71.50;;;;;;4164367;28;20604;-85
2023/06/13 01:23:28;;;;;;;4.25;2.40;;;18.00;71.80;;;;;;4180344;28;20053;-86
2023/06/13 01:25:59;;;;;;;6.93;2.80;;;18.00;72.50;;;;;;4198481;28;20126;-86
2023/06/13 01:28:02;;;;;;;4.53;2.17;;;17.90;72.60;;;;;;4182537;28;20306;-86
2023/06/13 01:30:04;;;;;;;6.85;2.28;;;17.90;72.40;;;;;;4184368;28;20060;-86
2023/06/13 01:32:15;;;;;;;5.65;2.40;;;17.80;72.80;;;;;;4183116;28;20444;-86
2023/06/13 01:34:16;;;;;;;6.10;2.53;;;17.70;73.70;;;;;;4183615;28;20053;-86
2023/06/13 01:36:23;;;;;;;4.50;2.75;;;17.70;73.60;;;;;;4201243;28;20090;-86
2023/06/13 01:38:24;;;;;;;5.28;2.72;;;17.70;74.20;;;;;;4183082;28;20405;-86
2023/06/13 01:40:26;;;;;;;8.50;2.35;;;17.60;74.00;;;;;;4201827;28;20095;-86
2023/06/13 01:42:26;;;;;;;4.25;2.58;;;17.60;74.40;;;;;;4167332;28;20050;-86
2023/06/13 01:44:29;;;;;;;6.22;2.45;;;17.50;74.70;;;;;;4167571;28;20056;-86
2023/06/13 01:46:32;;;;;;;4.97;2.90;;;17.50;74.90;;;;;;4201464;28;20190;-86
2023/06/13 01:48:45;;;;;;;12.88;3.97;;;17.40;75.20;;;;;;4184267;28;20064;-86
2023/06/13 01:51:05;;;;;;;19.23;4.00;;;17.40;75.30;;;;;;4184163;28;20053;-86
2023/06/13 01:53:18;;;;;;;5.95;2.33;;;17.30;75.60;;;;;;4183570;28;20118;-86
2023/06/13 01:55:32;;;;;;;6.65;2.50;;;17.30;75.70;;;;;;4201405;28;20048;-86
2023/06/13 01:57:43;;;;;;;6.43;2.92;;;17.30;76.10;;;;;;4184092;28;20063;-86
2023/06/13 01:59:45;;;;;;;7.35;2.28;;;17.30;76.30;;;;;;4202122;28;20166;-86
2023/06/13 02:01:47;;;;;;;5.82;2.83;;;17.20;76.10;;;;;;4184285;28;20128;-86
2023/06/13 02:03:48;;;;;;;4.88;2.40;;;17.20;76.10;;;;;;4202351;28;20041;-86
2023/06/13 02:05:48;;;;;;;5.53;2.50;;;17.20;76.10;;;;;;4184035;28;20075;-87
2023/06/13 02:07:53;;;;;;;5.15;2.42;;;17.20;76.30;;;;;;4201637;28;20401;-86
2023/06/13 02:09:54;;;;;;;8.55;2.20;;;17.20;76.40;;;;;;4183460;28;20049;-86
2023/06/13 02:11:54;;;;;;;5.60;2.25;;;17.20;76.40;;;;;;4201297;28;20063;-86
2023/06/13 02:13:55;;;;;;;7.18;2.55;;;17.20;76.20;;;;;;4184125;28;20052;-87
2023/06/13 02:15:56;;;;;;;10.23;2.65;;;17.20;76.00;;;;;;4201356;28;20036;-86
2023/06/13 02:17:57;;;;;;;5.10;2.45;;;17.20;76.00;;;;;;4183802;28;20624;-86
2023/06/13 02:19:57;;;;;;;7.45;2.30;;;17.20;75.90;;;;;;4201001;28;20044;-87
2023/06/13 02:21:58;;;;;;;4.70;2.70;;;17.20;75.90;;;;;;4183831;28;20573;-86
2023/06/13 02:23:59;;;;;;;5.38;2.55;;;17.20;75.90;;;;;;4184860;28;20092;-86
2023/06/13 02:26:00;;;;;;;4.40;2.38;;;17.20;75.80;;;;;;4185189;28;20041;-86
2023/06/13 02:28:01;;;;;;;4.88;2.67;;;17.20;75.60;;;;;;4167574;28;20045;-86
2023/06/13 02:30:03;;;;;;;7.10;3.05;;;17.20;75.60;;;;;;4166488;28;20117;-86
2023/06/13 02:32:07;;;;;;;3.22;2.20;;;17.20;75.70;;;;;;4167183;28;20060;-86
2023/06/13 02:34:07;;;;;;;7.88;2.80;;;17.20;75.80;;;;;;4182878;28;20076;-86
2023/06/13 02:36:09;;;;;;;5.55;3.28;;;17.20;75.80;;;;;;4183407;28;20095;-86
2023/06/13 02:38:10;;;;;;;5.25;2.40;;;17.10;75.80;;;;;;4184289;28;20143;-86
2023/06/13 02:40:11;;;;;;;5.35;2.72;;;17.10;75.70;;;;;;4182829;28;20452;-86
2023/06/13 02:42:12;;;;;;;8.27;3.47;;;17.10;75.80;;;;;;4183651;28;20056;-85
2023/06/13 02:44:13;;;;;;;7.20;2.60;;;17.10;76.00;;;;;;4184064;28;20372;-86
2023/06/13 02:46:15;;;;;;;4.82;2.60;;;17.00;76.20;;;;;;4184336;28;20448;-86
2023/06/13 02:48:16;;;;;;;6.13;2.63;;;17.00;76.30;;;;;;4183358;28;20045;-86
2023/06/13 02:50:16;;;;;;;4.97;2.80;;;16.90;76.60;;;;;;4183173;28;20067;-86
2023/06/13 02:52:19;;;;;;;7.55;2.80;;;16.90;77.00;;;;;;4183902;28;20536;-87
2023/06/13 02:54:20;;;;;;;5.80;2.83;;;16.80;77.20;;;;;;4184421;28;20104;-86
2023/06/13 02:56:20;;;;;;;8.63;2.95;;;16.80;77.20;;;;;;4184068;28;20060;-85
2023/06/13 02:58:21;;;;;;;4.78;2.40;;;16.80;77.30;;;;;;4182693;28;20443;-86
2023/06/13 03:00:22;;;;;;;6.30;3.15;;;16.70;77.40;;;;;;4184722;28;20049;-86
2023/06/13 03:02:25;;;;;;;6.68;2.88;;;16.70;78.00;;;;;;4181876;28;20493;-86
2023/06/13 03:04:28;;;;;;;6.05;2.83;;;16.70;77.60;;;;;;4182855;28;20080;-86
2023/06/13 03:06:31;;;;;;;9.57;3.08;;;16.70;77.70;;;;;;4182516;28;20057;-86
2023/06/13 03:08:31;;;;;;;5.47;2.95;;;16.70;77.80;;;;;;4184261;28;20044;-87
2023/06/13 03:10:33;;;;;;;4.90;2.92;;;16.60;77.90;;;;;;4182757;28;20084;-86
2023/06/13 03:12:33;;;;;;;6.07;2.80;;;16.60;78.00;;;;;;4183740;28;20073;-87
2023/06/13 03:14:34;;;;;;;3.70;2.38;;;16.60;77.90;;;;;;4198700;28;20048;-86
2023/06/13 03:16:38;;;;;;;9.57;2.80;;;16.50;78.00;;;;;;4199058;28;20045;-87
2023/06/13 03:18:55;;;;;;;6.75;3.00;;;16.50;78.30;;;;;;4200324;28;20048;-86
2023/06/13 03:20:56;;;;;;;7.20;2.90;;;16.50;78.40;;;;;;4200765;28;20044;-86
2023/06/13 03:22:57;;;;;;;6.00;3.40;;;16.50;78.20;;;;;;4198905;28;20416;-87
2023/06/13 03:25:02;;;;;;;4.85;2.63;;;16.50;78.10;;;;;;4200303;28;20400;-87
2023/06/13 03:27:03;;;;;;;6.63;2.70;;;16.50;77.90;;;;;;4182136;28;20045;-87
2023/06/13 03:29:05;;;;;;;7.55;3.67;;;16.50;78.00;;;;;;4200744;28;20120;-87
2023/06/13 03:31:07;;;;;;;5.47;2.60;;;16.40;77.90;;;;;;4198910;28;20051;-87
2023/06/13 03:33:09;;;;;;;4.57;2.50;;;16.40;77.90;;;;;;4200127;28;20143;-87
2023/06/13 03:35:10;;;;;;;4.72;2.50;;;16.50;77.90;;;;;;4200542;28;20439;-86
2023/06/13 03:37:11;;;;;;;4.25;2.60;;;16.40;77.90;;;;;;4200075;28;20054;-87
2023/06/13 03:39:12;;;;;;;7.00;2.65;;;16.40;77.80;;;;;;4199280;28;20580;-87
2023/06/13 03:41:14;;;;;;;7.43;3.42;;;16.40;77.70;;;;;;4198425;28;20048;-87
2023/06/13 03:43:16;;;;;;;5.82;3.08;;;16.40;77.40;;;;;;4199267;28;20127;-87
2023/06/13 03:45:25;;;;;;;5.03;2.50;;;16.40;77.20;;;;;;4199372;28;20049;-87
2023/06/13 03:47:26;;;;;;;6.47;3.97;;;16.40;77.30;;;;;;4198634;28;20059;-87
2023/06/13 03:49:27;;;;;;;5.40;2.95;;;16.50;76.90;;;;;;4201071;28;20054;-86
2023/06/13 03:51:27;;;;;;;4.88;3.30;;;16.40;76.90;;;;;;4198166;28;20089;-87
2023/06/13 03:53:28;;;;;;;5.18;3.05;;;16.40;77.00;;;;;;4199393;28;20040;-86
2023/06/13 03:55:31;;;;;;;5.57;2.92;;;16.40;77.00;;;;;;4181610;28;20520;-87
2023/06/13 03:57:33;;;;;;;6.35;3.38;;;16.40;77.40;;;;;;4182810;28;20049;-87
2023/06/13 03:59:34;;;;;;;8.90;3.13;;;16.40;77.80;;;;;;4198824;28;20048;-87
2023/06/13 04:01:37;;;;;;;5.53;2.42;;;16.40;78.50;;;;;;4199868;28;20479;-88
2023/06/13 04:03:39;;;;;;;9.88;3.30;;;16.40;79.50;;;;;;4199676;28;20053;-87
2023/06/13 04:05:44;;;;;;;5.47;2.95;;;16.30;79.70;;;;;;4198753;28;20036;-88
2023/06/13 04:07:44;;;;;;;5.35;2.72;;;16.30;80.00;;;;;;4199541;28;20504;-87
2023/06/13 04:09:47;;;;;;;9.80;3.60;;;16.30;80.60;;;;;;4197972;28;20041;-86
2023/06/13 04:11:48;;;;;;;7.60;3.28;;;16.30;81.30;;;;;;4189044;28;20045;-85
2023/06/13 04:13:49;;;;;;;6.05;2.92;;;16.30;81.80;;;;;;4183121;28;20045;-85
2023/06/13 04:15:50;;;;;;;4.88;3.05;;;16.20;82.30;;;;;;4188385;28;20052;-86
2023/06/13 04:17:52;;;;;;;5.65;3.00;;;16.20;82.60;;;;;;4199487;28;20053;-86
2023/06/13 04:19:53;;;;;;;6.47;3.25;;;16.10;82.70;;;;;;4198979;28;20055;-86
2023/06/13 04:21:54;;;;;;;6.93;3.42;;;16.10;82.90;;;;;;4192772;28;20068;-86
2023/06/13 04:23:55;;;;;;;4.13;3.00;;;16.10;83.60;;;;;;4198870;28;20056;-86
2023/06/13 04:25:57;;;;;;;7.10;3.85;;;16.00;84.40;;;;;;4199835;28;20055;-87
2023/06/13 04:28:03;;;;;;;7.72;3.35;;;16.00;85.20;;;;;;4199826;28;20123;-85
2023/06/13 04:30:06;;;;;;;5.72;3.15;;;16.00;86.80;;;;;;4201189;28;20048;-86
2023/06/13 04:32:12;;;;;;;6.25;3.10;;;16.00;87.10;;;;;;4182812;28;20120;-85
2023/06/13 04:34:14;;;;;;;7.30;3.00;;;16.00;87.90;;;;;;4198694;28;20112;-85
2023/06/13 04:36:15;;;;;;;4.75;3.15;;;15.90;88.30;;;;;;4200334;28;20154;-85
2023/06/13 04:38:20;;;;;;;5.22;3.35;;;16.00;89.10;;;;;;4182550;28;20099;-85
2023/06/13 04:40:23;;;;;;;6.68;3.22;;;16.00;89.80;;;;;;4184662;28;20053;-87
2023/06/13 04:42:27;;;;;;;6.28;3.35;;;16.00;90.10;;;;;;4182546;28;20049;-86
2023/06/13 04:44:28;;;;;;;6.97;3.38;;;16.10;90.40;;;;;;4180798;28;20056;-86
2023/06/13 04:46:32;;;;;;;4.38;2.55;;;16.10;90.50;;;;;;4200437;28;20476;-87
2023/06/13 04:48:35;;;;;;;5.68;3.38;;;16.10;90.60;;;;;;4183454;28;20052;-87
2023/06/13 04:50:40;;;;;;;6.07;2.70;;;16.40;91.00;;;;;;4199411;28;20056;-86
2023/06/13 04:52:41;;;;;;;4.78;2.72;;;16.20;91.00;;;;;;4209873;28;20039;-85
2023/06/13 04:54:42;;;;;;;8.35;3.00;;;16.20;91.20;;;;;;4215696;28;20396;-85
2023/06/13 04:56:43;;;;;;;5.63;3.15;;;16.20;91.40;;;;;;4216282;28;20051;-85
2023/06/13 04:58:55;;;;;;;5.57;2.70;;;16.30;91.60;;;;;;4214784;28;20024;-85
2023/06/13 05:00:58;;;;;;;13.13;3.08;;;16.30;92.20;;;;;;4198311;28;20064;-85
2023/06/13 05:03:00;;;;;;;7.78;3.55;;;16.40;91.90;;;;;;4216288;28;20043;-84
2023/06/13 05:05:04;;;;;;;4.75;2.85;;;16.40;92.30;;;;;;4204302;28;20496;-85
2023/06/13 05:07:06;;;;;;;4.85;2.70;;;16.50;92.10;;;;;;4199611;28;20047;-85
2023/06/13 05:09:07;;;;;;;4.75;2.75;;;16.50;92.10;;;;;;4181741;28;20481;-85
2023/06/13 05:11:08;;;;;;;6.97;3.22;;;16.60;92.00;;;;;;4198735;28;20048;-85
2023/06/13 05:13:10;;;;;;;8.13;2.90;;;16.70;92.10;;;;;;4216057;28;20044;-85
2023/06/13 05:15:11;;;;;;;6.75;2.88;;;16.70;91.50;;;;;;4216769;28;20051;-87
2023/06/13 05:17:14;;;;;;;6.07;2.97;;;16.80;91.40;;;;;;4217063;28;20075;-84
2023/06/13 05:19:17;;;;;;;5.90;2.72;;;16.90;91.40;;;;;;4215761;28;20399;-85
2023/06/13 05:21:18;;;;;;;4.60;2.90;;;17.00;91.40;;;;;;4215249;28;20133;-86
2023/06/13 05:23:21;;;;;;;4.88;2.95;;;17.10;91.30;;;;;;4215279;28;20052;-86
2023/06/13 05:25:22;;;;;;;9.15;3.00;;;17.20;91.40;;;;;;4199031;28;20131;-86
2023/06/13 05:27:24;;;;;;;4.65;2.47;;;17.20;91.50;;;;;;4216617;28;20044;-85
2023/06/13 05:29:26;;;;;;;10.52;2.63;;;17.30;91.50;;;;;;4197469;28;20041;-85
2023/06/13 05:31:27;;;;;;;5.18;2.42;;;17.40;91.40;;;;;;4216116;28;20071;-86
2023/06/13 05:33:29;;;;;;;10.20;3.15;;;17.50;91.30;;;;;;4197281;28;20037;-86
2023/06/13 05:35:30;;;;;;;8.43;2.60;;;17.50;91.30;;;;;;4216475;28;20036;-85
2023/06/13 05:37:31;;;;;;;5.25;3.08;;;17.70;91.30;;;;;;4216683;28;20476;-85
2023/06/13 05:39:32;;;;;;;5.68;2.63;;;17.70;91.10;;;;;;4217186;28;20132;-86
2023/06/13 05:41:34;;;;;;;5.35;2.58;;;17.80;91.10;;;;;;4217704;28;20044;-86
2023/06/13 05:43:34;;;;;;;3.85;2.15;;;17.90;91.20;;;;;;4198591;28;20102;-86
2023/06/13 05:45:35;;;;;;;6.50;2.58;;;18.00;91.20;;;;;;4216699;28;20472;-85
2023/06/13 05:47:36;;;;;;;4.20;2.60;;;18.10;91.00;;;;;;4217182;28;20050;-84
2023/06/13 05:49:37;;;;;;;5.07;2.25;;;18.20;90.70;;;;;;4218460;28;20032;-85
2023/06/13 05:51:40;;;;;;;4.95;2.55;;;18.20;90.70;;;;;;4217145;28;20044;-85
2023/06/13 05:53:41;;;;;;;5.05;2.40;;;18.30;90.50;;;;;;4217845;28;20044;-85
2023/06/13 05:55:43;;;;;;;7.72;2.67;;;18.40;90.20;;;;;;4198188;28;20496;-85
2023/06/13 05:57:44;;;;;;;6.03;2.45;;;18.50;90.10;;;;;;4218150;28;20055;-85
2023/06/13 05:59:45;;;;;;;5.00;2.60;;;18.60;89.60;;;;;;4217620;28;20526;-85
2023/06/13 06:01:46;;;;;;;4.85;2.60;;;18.70;89.00;;;;;;4217738;28;20036;-85
2023/06/13 06:03:47;;;;;;;6.32;2.45;;;18.70;88.60;;;;;;4199849;28;20131;-85
2023/06/13 06:05:48;;;;;;;8.68;2.47;;;18.80;88.00;;;;;;4198887;28;21005;-85
2023/06/13 06:07:50;;;;;;;3.58;2.08;;;18.90;87.40;;;;;;4217182;28;20040;-85
2023/06/13 06:09:50;;;;;;;4.88;2.42;;;19.00;86.90;;;;;;4217207;28;20438;-85
2023/06/13 06:11:52;;;;;;;6.47;3.85;;;19.10;86.70;;;;;;4218354;28;20072;-86
2023/06/13 06:13:53;;;;;;;4.90;2.08;;;19.10;86.00;;;;;;4200304;28;20055;-86
2023/06/13 06:15:54;;;;;;;5.13;2.50;;;19.30;85.70;;;;;;4219735;28;20043;-85
2023/06/13 06:17:56;;;;;;;3.95;2.50;;;19.30;85.90;;;;;;4220210;28;20075;-86
2023/06/13 06:19:57;;;;;;;3.90;1.90;;;19.50;85.50;;;;;;4220073;28;20044;-86
2023/06/13 06:21:58;;;;;;;6.10;2.10;;;19.50;84.40;;;;;;4220016;28;20068;-85
2023/06/13 06:23:59;;;;;;;4.30;2.03;;;19.60;83.40;;;;;;4219231;28;20176;-86
2023/06/13 06:26:00;;;;;;;5.88;1.80;;;19.70;82.50;;;;;;4220050;28;20079;-86
2023/06/13 06:28:01;;;;;;;3.50;2.03;;;19.80;81.70;;;;;;4219301;28;20050;-85
2023/06/13 06:30:04;;;;;;;11.38;2.17;;;19.80;80.90;;;;;;4200921;28;20131;-86
2023/06/13 06:32:06;;;;;;;6.88;2.20;;;19.90;80.10;;;;;;4219728;28;20395;-86
2023/06/13 06:34:07;;;;;;;6.60;1.88;;;20.00;79.60;;;;;;4218733;28;20389;-85
2023/06/13 06:36:09;;;;;;;4.05;1.73;;;20.10;79.10;;;;;;4201628;28;20048;-85
2023/06/13 06:38:10;;;;;;;6.00;1.52;;;20.20;77.20;;;;;;4201428;28;20051;-86
2023/06/13 06:40:11;;;;;;;6.03;1.55;;;20.30;76.30;;;;;;4219641;28;20093;-85
2023/06/13 06:42:12;;;;;;;6.88;1.48;;;20.40;75.30;;;;;;4218983;28;20491;-86
2023/06/13 06:44:13;;;;;;;3.40;1.70;;;20.50;74.20;;;;;;4217882;28;20100;-85
2023/06/13 06:46:13;;;;;;;3.33;1.63;;;20.60;72.70;;;;;;4219078;28;20365;-85
2023/06/13 06:48:14;;;;;;;5.63;1.58;;;20.70;72.10;;;;;;4200318;28;20091;-85
2023/06/13 06:50:15;;;;;;;3.78;1.60;;;20.80;71.70;;;;;;4218512;28;20044;-85
2023/06/13 06:52:15;;;;;;;5.40;1.80;;;20.90;72.00;;;;;;4217038;28;20044;-86
2023/06/13 06:54:16;;;;;;;5.25;2.58;;;21.00;72.70;;;;;;4199984;28;20082;-85
2023/06/13 06:56:18;;;;;;;5.78;1.90;;;21.10;72.60;;;;;;4217366;28;20043;-86
2023/06/13 06:58:19;;;;;;;4.10;1.58;;;21.20;71.70;;;;;;4217791;28;20052;-85
2023/06/13 07:00:23;;;;;;;5.30;1.67;;;21.30;71.30;;;;;;4217360;28;20504;-85
2023/06/13 07:02:23;;;;;;;3.88;1.30;;;21.30;69.40;;;;;;4217033;28;20052;-85
2023/06/13 07:04:25;;;;;;;3.47;1.67;;;21.40;68.80;;;;;;4217538;28;20579;-86
2023/06/13 07:06:26;;;;;;;4.05;1.88;;;21.50;68.90;;;;;;4216405;28;20044;-86
2023/06/13 07:08:27;;;;;;;4.55;1.60;;;21.60;68.30;;;;;;4199379;28;20531;-85
2023/06/13 07:10:28;;;;;;;3.50;1.70;;;21.70;68.30;;;;;;4216965;28;20040;-85
2023/06/13 07:12:28;;;;;;;3.22;1.70;;;21.80;68.50;;;;;;4217577;28;20484;-85
2023/06/13 07:14:30;;;;;;;2.72;1.50;;;21.90;67.90;;;;;;4216878;28;20385;-86
2023/06/13 07:16:31;;;;;;;6.57;1.70;;;22.00;67.60;;;;;;4199000;28;20043;-85
2023/06/13 07:18:33;;;;;;;3.70;1.88;;;22.10;67.30;;;;;;4218212;28;20108;-86
2023/06/13 07:20:33;;;;;;;3.63;1.92;;;22.20;67.10;;;;;;4218779;28;20101;-85
2023/06/13 07:22:34;;;;;;;2.95;1.73;;;22.30;66.70;;;;;;4199868;28;20052;-86
2023/06/13 07:24:35;;;;;;;2.83;1.73;;;22.40;66.20;;;;;;4200099;28;20127;-85
2023/06/13 07:26:36;;;;;;;11.50;2.75;;;22.40;65.50;;;;;;4218015;28;20040;-84
2023/06/13 07:28:37;;;;;;;6.00;1.50;;;22.50;65.10;;;;;;4200140;28;20099;-85
2023/06/13 07:30:37;;;;;;;5.68;1.73;;;22.60;65.00;;;;;;4200921;28;20111;-85
2023/06/13 07:32:38;;;;;;;3.15;1.83;;;22.70;64.60;;;;;;4217713;28;20159;-86
2023/06/13 07:34:40;;;;;;;4.53;2.00;;;22.80;64.10;;;;;;4217553;28;20138;-85
2023/06/13 07:36:40;;;;;;;5.35;2.40;;;22.80;64.10;;;;;;4218152;28;20135;-85
2023/06/13 07:38:41;;;;;;;3.10;1.92;;;22.90;63.60;;;;;;4218118;28;20416;-85
2023/06/13 07:40:43;;;;;;;4.47;2.03;;;23.00;62.80;;;;;;4217987;28;20095;-85
2023/06/13 07:42:44;;;;;;;9.23;1.77;;;23.10;62.30;;;;;;4200059;28;20048;-85
2023/06/13 07:44:44;;;;;;;6.53;1.55;;;23.20;62.10;;;;;;4217877;28;20040;-85
2023/06/13 07:46:45;;;;;;;3.20;1.88;;;23.20;62.40;;;;;;4200649;28;20044;-85
2023/06/13 07:48:47;;;;;;;3.13;1.80;;;23.30;62.10;;;;;;4218672;28;20076;-85
2023/06/13 07:50:47;;;;;;;9.43;1.80;;;23.40;62.00;;;;;;4200508;28;20052;-84
2023/06/13 07:52:48;;;;;;;4.63;1.95;;;23.50;61.60;;;;;;4217271;28;20040;-84
2023/06/13 07:54:49;;;;;;;5.55;2.08;;;23.60;61.00;;;;;;4216631;28;20036;-84
2023/06/13 07:56:51;;;;;;;6.35;2.05;;;23.70;60.50;;;;;;4197930;28;20111;-85
2023/06/13 07:58:52;;;;;;;4.35;1.90;;;23.80;60.20;;;;;;4215868;28;20048;-85
2023/06/13 08:00:53;;;;;;;10.48;3.25;;;23.90;59.90;;;;;;4217564;28;20511;-85
2023/06/13 08:02:54;;;;;;;4.20;2.00;;;24.00;59.90;;;;;;4219063;28;20130;-85
2023/06/13 08:04:54;;;;;;;3.03;1.42;;;24.20;60.20;;;;;;4184306;28;20049;-85
2023/06/13 08:06:55;;;;;;;3.90;1.92;;;24.30;59.70;;;;;;4199477;28;20063;-86
2023/06/13 08:08:56;;;;;;;4.93;1.85;;;24.40;59.70;;;;;;4218087;28;20036;-85
2023/06/13 08:10:57;;;;;;;6.93;1.75;;;24.60;59.40;;;;;;4216183;28;20047;-84
2023/06/13 08:13:00;;;;;;;3.92;1.77;;;24.70;59.20;;;;;;4217703;28;20028;-85
2023/06/13 08:15:01;;;;;;;2.13;1.80;;;24.80;58.90;;;;;;4216173;28;20093;-85
2023/06/13 08:17:02;;;;;;;3.08;2.40;;;25.00;59.00;;;;;;4217062;28;20517;-85
2023/06/13 08:19:04;;;;;;;3.42;2.10;;;25.10;58.20;;;;;;4217861;28;20032;-85
2023/06/13 08:21:04;;;;;;;7.57;1.95;;;25.10;57.40;;;;;;4198632;28;20080;-85
2023/06/13 08:23:06;;;;;;;5.22;2.00;;;25.30;57.50;;;;;;4198988;28;20056;-85
2023/06/13 08:25:08;;;;;;;6.30;2.00;;;25.40;57.10;;;;;;4199048;28;20037;-85
2023/06/13 08:27:14;;;;;;;5.57;1.92;;;25.60;56.70;;;;;;4216850;28;20085;-85
2023/06/13 08:29:17;;;;;;;5.68;2.05;;;25.60;56.20;;;;;;4217117;28;20111;-86
2023/06/13 08:31:23;;;;;;;4.00;2.00;;;25.60;55.30;;;;;;4217856;28;20044;-86
2023/06/13 08:33:24;;;;;;;3.08;1.77;;;25.60;54.60;;;;;;4217226;28;20115;-85
2023/06/13 08:35:25;;;;;;;2.95;1.65;;;25.70;55.00;;;;;;4216951;28;20040;-85
2023/06/13 08:37:27;;;;;;;3.15;1.98;;;25.80;54.60;;;;;;4217131;28;20072;-85
2023/06/13 08:39:28;;;;;;;3.45;2.00;;;25.90;54.30;;;;;;4215706;28;20044;-85
2023/06/13 08:41:29;;;;;;;3.53;2.03;;;26.10;54.20;;;;;;4217162;28;20040;-85
2023/06/13 08:43:32;;;;;;;3.17;1.90;;;26.20;53.80;;;;;;4216308;28;20535;-85
2023/06/13 08:45:34;;;;;;;8.32;2.65;;;26.40;54.00;;;;;;4217013;28;20496;-85
2023/06/13 08:47:35;;;;;;;4.97;1.92;;;26.60;53.40;;;;;;4216912;28;20048;-85
2023/06/13 08:49:36;;;;;;;2.90;1.80;;;26.80;53.00;;;;;;4216351;28;20492;-85
2023/06/13 08:51:37;;;;;;;4.93;1.92;;;26.90;52.50;;;;;;4198920;28;20078;-85
2023/06/13 08:53:42;;;;;;;4.20;2.05;;;27.10;51.60;;;;;;4215488;28;20059;-84
2023/06/13 08:55:45;;;;;;;5.10;1.77;;;27.20;51.30;;;;;;4216153;28;20076;-85
2023/06/13 08:57:52;;;;;;;4.05;1.80;;;27.30;52.00;;;;;;4217560;28;20097;-85
2023/06/13 08:59:55;;;;;;;3.60;2.17;;;27.40;52.00;;;;;;4199349;28;20085;-85
2023/06/13 09:01:57;;;;;;;4.97;2.13;;;27.50;51.90;;;;;;4217063;28;20095;-84
2023/06/13 09:03:59;;;;;;;3.75;1.95;;;27.50;52.20;;;;;;4216630;28;20048;-84
2023/06/13 09:06:01;;;;;;;7.45;2.22;;;27.70;52.30;;;;;;4198510;28;20041;-84
2023/06/13 09:08:03;;;;;;;5.13;2.25;;;27.80;52.50;;;;;;4216429;28;20450;-85
2023/06/13 09:10:05;;;;;;;7.65;2.35;;;28.00;52.80;;;;;;4215698;28;20052;-85
2023/06/13 09:12:11;;;;;;;3.15;1.90;;;28.00;53.30;;;;;;4215810;28;20055;-84
2023/06/13 09:14:13;;;;;;;5.43;1.60;;;28.20;53.50;;;;;;4215417;28;20507;-84
2023/06/13 09:16:15;;;;;;;3.40;2.00;;;28.30;52.90;;;;;;4215661;28;20044;-85
2023/06/13 09:18:18;;;;;;;9.65;2.10;;;28.50;53.00;;;;;;4197541;28;20067;-85
2023/06/13 09:20:20;;;;;;;6.18;2.63;;;28.80;52.50;;;;;;4215942;28;20040;-85
2023/06/13 09:22:21;;;;;;;3.30;2.13;;;28.80;52.00;;;;;;4215849;28;20154;-85
2023/06/13 09:24:26;;;;;;;3.30;2.00;;;28.80;51.60;;;;;;4214769;28;20488;-85
2023/06/13 09:26:27;;;;;;;3.35;2.00;;;28.90;50.60;;;;;;4217349;28;20113;-85
2023/06/13 09:28:38;;;;;;;10.60;2.17;;;29.00;51.10;;;;;;4197522;28;20044;-85
2023/06/13 09:30:43;;;;;;;6.53;1.90;;;29.00;50.50;;;;;;4216288;28;20053;-84
2023/06/13 09:32:49;;;;;;;4.30;1.65;;;29.00;50.50;;;;;;4216766;28;20051;-83
2023/06/13 09:34:52;;;;;;;5.45;2.15;;;29.10;50.20;;;;;;4215491;28;20055;-84
2023/06/13 09:36:56;;;;;;;5.88;1.50;;;29.20;50.10;;;;;;4215681;28;20399;-84
2023/06/13 09:39:00;;;;;;;2.92;1.92;;;29.40;50.30;;;;;;4216370;28;20561;-84
2023/06/13 09:41:04;;;;;;;2.47;1.70;;;29.40;50.00;;;;;;4182615;28;20045;-84
2023/06/13 09:43:07;;;;;;;4.03;1.67;;;29.50;49.10;;;;;;4217105;28;20040;-85
2023/06/13 09:45:09;;;;;;;3.28;1.80;;;29.50;49.40;;;;;;4198537;28;20508;-85
2023/06/13 09:47:20;;;;;;;3.50;2.10;;;29.60;48.50;;;;;;4217274;28;20400;-85
2023/06/13 09:49:22;;;;;;;6.47;1.80;;;29.70;49.00;;;;;;4199688;28;20060;-85
2023/06/13 09:51:28;;;;;;;2.75;1.60;;;29.90;49.40;;;;;;4219206;28;20434;-85
2023/06/13 09:53:30;;;;;;;5.40;2.03;;;29.90;50.00;;;;;;4201159;28;20123;-85
2023/06/13 09:55:31;;;;;;;3.25;1.50;;;30.10;50.10;;;;;;4218566;28;20467;-85
2023/06/13 09:57:32;;;;;;;5.30;1.90;;;30.20;49.70;;;;;;4218810;28;20476;-85
2023/06/13 09:59:34;;;;;;;6.05;1.70;;;30.20;49.20;;;;;;4217784;28;20032;-85
2023/06/13 10:01:34;;;;;;;4.50;1.65;;;30.40;49.50;;;;;;4200238;28;20045;-85
2023/06/13 10:03:36;;;;;;;2.03;1.67;;;30.50;50.20;;;;;;4218141;28;20163;-85
2023/06/13 10:05:38;;;;;;;2.63;1.98;;;30.40;50.20;;;;;;4199444;28;20049;-85
2023/06/13 10:07:40;;;;;;;4.47;1.77;;;30.40;50.10;;;;;;4217993;28;20504;-85
2023/06/13 10:09:42;;;;;;;4.03;2.30;;;30.30;48.70;;;;;;4217032;28;20050;-85
2023/06/13 10:11:47;;;;;;;2.10;1.52;;;30.30;48.70;;;;;;4218377;28;20070;-85
2023/06/13 10:13:59;;;;;;;5.63;1.75;;;30.30;48.10;;;;;;4199640;28;20497;-85
2023/06/13 10:16:05;;;;;;;7.47;2.38;;;30.40;48.60;;;;;;4216911;28;20040;-85
2023/06/13 10:18:12;;;;;;;3.72;1.52;;;30.60;49.40;;;;;;4218437;28;20086;-85
2023/06/13 10:20:17;;;;;;;3.95;1.45;;;30.80;49.60;;;;;;4217747;28;20044;-85
2023/06/13 10:22:19;;;;;;;6.68;1.80;;;30.90;49.00;;;;;;4218403;28;20127;-85
2023/06/13 10:24:21;;;;;;;5.03;1.30;;;31.10;48.60;;;;;;4217762;28;20044;-84
2023/06/13 10:26:39;;;;;;;6.05;1.50;;;31.10;47.70;;;;;;4198705;28;20055;-85
2023/06/13 10:29:06;;;;;;;5.18;1.70;;;31.30;47.80;;;;;;4218717;28;20079;-84
2023/06/13 10:31:07;;;;;;;7.45;1.70;;;31.50;48.00;;;;;;4218502;28;20075;-85
2023/06/13 10:33:37;;;;;;;3.28;1.52;;;31.60;47.60;;;;;;4217138;28;20047;-85
2023/06/13 10:36:11;;;;;;;2.35;1.30;;;31.50;47.80;;;;;;4199554;28;20036;-85
2023/06/13 10:38:42;;;;;;;5.07;1.55;;;31.60;48.40;;;;;;4199719;28;20064;-85